Latest Coastal Weather Observations for Coolangatta (QLD)

IDN60701

Issued at 11:01 am EDT Saturday 25 March 2017 (issued every 10 minutes, with the page automatically refreshed every 10 minutes)

About coastal observations | Map of coastal stations | Coastal observations for NSW | Marine services | Other Formats
Station Details ID: 040717 Name: COOLANGATTA Lat: -28.17 Lon: 153.51 Height: 4.0 m
Data from the previous 72 hours. | See also: Recent months at Coolangatta (QLD)
Date/Time
EDT
Temp
°C
Wind Pressure Rain since
9am
mm
Weather Cloud Vis
km
Sea
Height
m
Swell
Dir  Spd
kts
Gust
kts
hPa Trend Height
m
Period
s
Dir
25/11:00am 23.6 S 10 13 1017.3 - 0.0 - Partly cloudy 10 - - - -
25/10:30am 24.0 S 10 14 1017.3 - 0.0 - Partly cloudy 10 - - - -
25/10:00am 23.9 S 9 12 1017.1 - 0.2 - Cloudy 10 - - - -
25/09:30am 23.3 S 9 13 1017.0 - 0.2 - Partly cloudy 10 - - - -
25/09:00am 22.5 SSW 8 13 1016.9 - 0.2 - Partly cloudy 10 - - - -
25/08:30am 23.2 SSW 8 11 1016.4 - 0.2 - Partly cloudy 10 - - - -
25/08:00am 22.6 SSW 9 13 1016.1 - 0.2 - Partly cloudy 10 - - - -
25/07:30am 21.9 SSW 7 9 1015.8 - 0.2 - Cloudy 10 - - - -
25/07:00am 21.7 SSW 7 11 1015.6 - 0.2 - Cloudy 10 - - - -
25/06:30am 21.7 SSW 7 9 1015.3 - 0.2 - Cloudy 10 - - - -
25/06:00am 21.6 SSW 7 9 1015.2 - 0.2 - Cloudy 10 - - - -
25/05:30am 21.9 SSW 7 10 1015.0 - 0.2 - Cloudy 10 - - - -
25/05:00am 22.1 SSW 6 9 1014.8 - 0.2 - Cloudy 10 - - - -
25/04:30am 22.1 S 7 10 1014.9 - 0.2 - Cloudy 10 - - - -
25/04:00am 22.1 S 8 12 1015.0 - 0.2 - Mostly cloudy 10 - - - -
25/03:30am 22.0 SSW 7 10 1015.1 - 0.2 - Partly cloudy 10 - - - -
25/03:00am 22.3 SSW 7 10 1015.5 - 0.2 - Partly cloudy 10 - - - -
25/02:30am 22.5 SSW 7 11 1015.8 - 0.2 - Partly cloudy 10 - - - -
25/02:00am 22.5 S 7 11 1016.1 - 0.2 - Partly cloudy 10 - - - -
25/01:30am 22.8 S 9 12 1016.4 - 0.2 - Partly cloudy 10 - - - -
25/01:00am 23.0 S 9 13 1016.3 - 0.2 - Mostly cloudy 10 - - - -
25/12:30am 23.0 S 9 14 1016.6 - 0.2 - Partly cloudy 10 - - - -
25/12:00am 23.2 SSW 8 11 1016.9 - 0.2 - Partly cloudy 10 - - - -
 
Date/Time
EDT
Temp
°C
Wind Pressure Rain since
9am
mm
Weather Cloud Vis
km
Sea
Height
m
Swell
Dir  Spd
kts
Gust
kts
hPa Trend Height
m
Period
s
Dir
24/11:30pm 23.2 S 9 13 1016.8 - 0.2 - Partly cloudy 10 - - - -
24/11:00pm 23.1 SSW 8 12 1016.7 - 0.2 - Partly cloudy 10 - - - -
24/10:30pm 23.2 SSW 8 11 1016.7 - 0.2 - Partly cloudy 10 - - - -
24/10:00pm 23.1 S 9 12 1016.6 - 0.2 - Cloudy 10 - - - -
24/09:30pm 22.9 SSW 9 13 1016.6 - 0.2 - Partly cloudy 10 - - - -
24/09:00pm 22.2 S 8 12 1016.6 - 0.2 - Partly cloudy 10 - - - -
24/08:30pm 22.2 SSW 9 13 1016.3 - 0.2 - Partly cloudy 10 - - - -
24/08:19pm 22.1 S 9 13 1016.1 - 0.2 - Partly cloudy 10 - - - -
24/08:00pm 21.9 S 11 17 1016.1 - 0.2 - Partly cloudy 10 - - - -
24/07:30pm 22.0 S 15 22 1015.7 - 0.2 - Partly cloudy 9 - - - -
24/07:00pm 22.9 S 15 23 1015.2 - 0.2 - Cloudy 10 - - - -
24/06:56pm 23.0 S 14 24 1015.1 - 0.2 - Cloudy 10 - - - -
24/06:30pm 23.7 S 14 22 1015.0 - 0.2 - Cloudy 10 - - - -
24/06:00pm 24.0 S 13 19 1014.6 - 0.2 - Partly cloudy 10 - - - -
24/05:30pm 25.0 S 12 17 1014.3 - 0.2 - Partly cloudy 10 - - - -
24/05:00pm 25.4 SSE 15 20 1014.0 - 0.2 - Partly cloudy 10 - - - -
24/04:30pm 25.8 S 12 18 1013.9 - 0.0 - Partly cloudy 10 - - - -
24/04:00pm 24.9 S 13 19 1013.9 - 0.0 - Cloudy 10 - - - -
24/03:30pm 25.6 SE 14 18 1013.8 - 0.0 - Partly cloudy 10 - - - -
24/03:00pm 25.9 SE 15 21 1014.0 - 0.0 - Partly cloudy 10 - - - -
24/02:30pm 24.5 SE 12 19 1014.3 - 0.0 - Partly cloudy 10 - - - -
24/02:00pm 27.3 ESE 11 13 1014.4 - 0.0 - Partly cloudy 10 - - - -
24/01:30pm 27.4 ESE 11 13 1014.8 - 0.0 - Partly cloudy 10 - - - -
24/01:00pm 27.9 SSE 6 9 1015.1 - 0.0 - Cloudy 10 - - - -
24/12:30pm 27.6 S 6 10 1015.5 - 0.0 - Partly cloudy 10 - - - -
24/12:00pm 28.4 SSE 6 8 1015.8 - 0.0 - Partly cloudy 10 - - - -
24/11:30am 26.4 S 6 8 1016.1 - 0.0 - Partly cloudy 10 - - - -
24/11:00am 27.0 SSW 8 11 1016.4 - 0.0 - Partly cloudy 10 - - - -
24/10:30am 26.2 SSE 7 8 1016.3 - 0.0 - Partly cloudy 10 - - - -
24/10:00am 25.6 SSE 5 6 1016.2 - 1.4 - Mostly cloudy 10 - - - -
24/09:30am 25.0 SSE 6 9 1016.1 - 1.4 - Partly cloudy 10 - - - -
24/09:00am 24.5 SSE 5 8 1015.7 - 1.4 - - 10 - - - -
24/08:30am 24.2 S 4 6 1015.5 - 1.4 - Partly cloudy 10 - - - -
24/08:00am 23.2 SW 4 6 1015.3 - 1.4 - Cloudy 10 - - - -
24/07:30am 22.3 SSW 4 7 1015.1 - 1.4 - Partly cloudy 10 - - - -
24/07:00am 21.6 S 4 6 1014.7 - 1.4 - Cloudy 10 - - - -
24/06:30am 21.7 S 5 5 1014.5 - 1.4 - Partly cloudy 10 - - - -
24/06:00am 21.5 SSW 4 5 1014.2 - 1.4 - Partly cloudy 10 - - - -
24/05:30am 21.2 S 5 6 1014.0 - 1.4 - Partly cloudy 10 - - - -
24/05:00am 21.3 S 3 5 1014.1 - 1.4 - Partly cloudy 10 - - - -
24/04:30am 21.1 S 3 4 1014.0 - 1.4 - Partly cloudy 10 - - - -
24/04:00am 21.2 S 2 4 1013.9 - 1.4 - Partly cloudy 10 - - - -
24/03:30am 21.2 SSE 1 5 1014.2 - 1.4 - - 10 - - - -
24/03:00am 21.4 SSW 3 5 1014.6 - 1.4 - - 10 - - - -
24/02:30am 21.4 S 3 4 1014.9 - 1.4 - - 10 - - - -
24/02:00am 21.7 S 3 4 1015.2 - 1.4 - - 10 - - - -
24/01:30am 21.8 SW 1 3 1015.5 - 1.4 - - 10 - - - -
24/01:00am 21.6 SE 4 5 1015.3 - 1.4 - - 10 - - - -
24/12:30am 22.0 SSW 3 4 1015.5 - 1.4 - Partly cloudy 10 - - - -
24/12:00am 22.1 SSW 2 3 1015.7 - 1.4 - Cloudy 10 - - - -
 
Date/Time
EDT
Temp
°C
Wind Pressure Rain since
9am
mm
Weather Cloud Vis
km
Sea
Height
m
Swell
Dir  Spd
kts
Gust
kts
hPa Trend Height
m
Period
s
Dir
23/11:30pm 22.2 S 3 5 1015.8 - 1.4 - Partly cloudy 10 - - - -
23/11:00pm 22.3 SSW 2 4 1015.9 - 1.4 - Partly cloudy 10 - - - -
23/10:30pm 22.4 SSW 1 3 1016.1 - 1.4 - Partly cloudy 10 - - - -
23/10:00pm 22.3 SW 2 5 1016.3 - 1.4 Drizzle Mostly cloudy 10 - - - -
23/09:30pm 22.4 WSW 4 6 1016.2 - 1.4 - Cloudy 10 - - - -
23/09:00pm 22.5 SW 2 5 1016.1 - 1.4 - Partly cloudy 10 - - - -
23/08:30pm 22.5 WSW 3 5 1015.9 - 1.4 - Partly cloudy 10 - - - -
23/08:00pm 22.6 SW 6 8 1015.7 - 1.4 - Partly cloudy 10 - - - -
23/07:30pm 22.8 S 9 12 1015.6 - 1.2 - Partly cloudy 10 - - - -
23/07:00pm 23.7 S 7 10 1015.5 - 0.0 Drizzle Partly cloudy 10 - - - -
23/06:30pm 24.5 S 7 11 1015.4 - 0.0 - Partly cloudy 10 - - - -
23/06:00pm 25.6 SSE 7 8 1014.9 - 0.0 - Partly cloudy 10 - - - -
23/05:30pm 26.6 E 6 9 1014.6 - 0.0 - Partly cloudy 10 - - - -
23/05:00pm 26.9 NE 7 9 1014.4 - 0.0 - Cloudy 10 - - - -
23/04:30pm 27.2 NNE 8 10 1014.1 - 0.0 - Partly cloudy 10 - - - -
23/04:00pm 27.2 NNE 9 12 1013.9 - 0.0 - Cloudy 10 - - - -
23/03:30pm 27.2 N 10 12 1014.0 - 0.0 - Partly cloudy 10 - - - -
23/03:00pm 28.1 N 12 14 1013.8 - 0.0 - Partly cloudy 10 - - - -
23/02:30pm 28.2 N 13 16 1014.0 - 0.0 - Partly cloudy 10 - - - -
23/02:00pm 28.7 N 13 17 1014.2 - 0.0 - Partly cloudy 10 - - - -
23/01:30pm 28.3 N 13 16 1014.7 - 0.0 - Partly cloudy 10 - - - -
23/01:00pm 28.4 N 12 15 1015.2 - 0.0 - Mostly clear 10 - - - -
23/12:30pm 29.2 N 12 15 1015.6 - 0.0 - Partly cloudy 10 - - - -
23/12:00pm 28.2 N 12 15 1015.9 - 0.0 - Partly cloudy 10 - - - -
23/11:30am 27.7 N 13 16 1016.1 - 0.0 - Partly cloudy 10 - - - -
23/11:00am 27.8 NNW 11 17 1016.2 - 0.0 - Partly cloudy 10 - - - -
23/10:30am 26.7 NW 7 11 1016.2 - 0.0 - Partly cloudy 10 - - - -
23/10:00am 25.5 WNW 5 8 1016.2 - 0.6 - Cloudy 10 - - - -
23/09:30am 24.8 NW 5 7 1015.8 - 0.6 - Partly cloudy 10 - - - -
23/09:00am 24.6 NNW 5 7 1015.7 - 0.6 - Partly cloudy 10 - - - -
23/08:30am 23.7 WNW 1 4 1015.4 - 0.6 - Partly cloudy 10 - - - -
23/08:00am 23.2 CALM 0 0 1015.1 - 0.4 - - 10 - - - -
23/07:30am 22.9 CALM 0 0 1014.9 - 0.4 - - 10 - - - -
23/07:00am 22.7 CALM 0 0 1014.7 - 0.4 - Cloudy 10 - - - -
23/06:30am 22.7 CALM 0 0 1014.6 - 0.4 - Partly cloudy 10 - - - -
23/06:00am 22.6 WSW 4 5 1014.4 - 0.4 - Partly cloudy 10 - - - -
23/05:30am 22.7 WSW 2 4 1014.1 - 0.4 - - 10 - - - -
23/05:00am 22.9 CALM 0 0 1013.9 - 0.4 - - 10 - - - -
23/04:30am 22.9 CALM 0 0 1013.9 - 0.4 - - 10 - - - -
23/04:00am 22.9 CALM 0 0 1014.0 - 0.4 - Mostly cloudy 10 - - - -
23/03:30am 22.9 CALM 0 0 1014.0 - 0.4 - - 10 - - - -
23/03:00am 23.1 CALM 0 0 1014.0 - 0.4 - - 10 - - - -
23/02:30am 23.0 W 2 4 1014.3 - 0.4 - - 10 - - - -
23/02:00am 23.1 CALM 0 0 1014.6 - 0.4 - - 10 - - - -
23/01:30am 23.3 CALM 0 0 1014.9 - 0.4 - - 10 - - - -
23/01:00am 23.4 CALM 0 0 1015.1 - 0.4 - Mostly cloudy 10 - - - -
23/12:30am 23.4 WNW 4 5 1015.2 - 0.4 - - 10 - - - -
23/12:00am 23.2 WNW 5 6 1015.3 - 0.4 - Partly cloudy 10 - - - -
 
Date/Time
EDT
Temp
°C
Wind Pressure Rain since
9am
mm
Weather Cloud Vis
km
Sea
Height
m
Swell
Dir  Spd
kts
Gust
kts
hPa Trend Height
m
Period
s
Dir
22/11:30pm 23.2 WNW 1 4 1015.3 - 0.4 - - 10 - - - -
22/11:00pm 23.2 W 4 5 1015.6 - 0.4 - - 10 - - - -
22/10:30pm 23.5 WSW 4 5 1015.6 - 0.4 - - 10 - - - -
22/10:00pm 23.3 WNW 5 5 1015.6 - 0.4 - Mostly clear 10 - - - -
22/09:30pm 23.3 WNW 2 4 1015.3 - 0.4 - Partly cloudy 10 - - - -
22/09:00pm 23.5 WNW 3 4 1015.2 - 0.4 - - 10 - - - -
22/08:30pm 23.7 WNW 3 4 1015.0 - 0.4 - - 10 - - - -
22/08:00pm 24.0 W 1 3 1014.7 - 0.4 - Partly cloudy 10 - - - -
22/07:30pm 24.1 W 3 4 1014.5 - 0.4 - Cloudy 10 - - - -
22/07:00pm 24.4 NW 3 7 1014.2 - 0.4 Showers Partly cloudy 10 - - - -
22/06:30pm 24.8 WNW 4 5 1014.0 - 0.0 - Partly cloudy 10 - - - -
22/06:00pm 25.6 W 4 6 1013.8 - 0.0 - Partly cloudy 10 - - - -
22/05:30pm 25.6 WSW 5 6 1013.8 - 0.0 - Partly cloudy 10 - - - -
22/05:00pm 25.7 WNW 6 9 1013.7 - 0.0 - Partly cloudy 10 - - - -
22/04:30pm 26.6 N 11 14 1013.7 - 0.0 - Partly cloudy 10 - - - -
22/04:00pm 27.4 N 10 13 1013.7 - 0.0 Drizzle Cloudy 10 - - - -
22/03:30pm 27.3 N 9 13 1013.7 - 0.0 - Partly cloudy 10 - - - -
22/03:00pm 27.9 NNE 11 13 1013.7 - 0.0 - Partly cloudy 10 - - - -
22/02:30pm 28.7 NNE 11 13 1013.9 - 0.0 - Partly cloudy 10 - - - -
22/02:00pm 28.0 NNE 9 11 1014.3 - 0.0 - Partly cloudy 10 - - - -
22/01:30pm 28.2 N 7 10 1014.6 - 0.0 - - 10 - - - -
22/01:00pm 28.3 N 8 12 1014.8 - 0.0 - Mostly cloudy 10 - - - -
22/12:30pm 27.6 N 8 10 1015.2 - 0.0 - Partly cloudy 10 - - - -

Other Formats:

Comma delimited format used in spreadsheet applications
http://www.bom.gov.au/fwo/IDN60701/IDN60701.94592.axf

JavaScript Object Notation format (JSON) in row-major order
http://www.bom.gov.au/fwo/IDN60701/IDN60701.94592.json